ADDS METAR Data INFO
IDs: Format: Raw Decoded Include TAF

Data at: 1717 UTC 23 Oct 2017

PFNO 231656Z AUTO 08011KT 10SM CLR M13/M14 A2986 RMK AO2 SLP112 T11281139 FZRANO
PFNO 231556Z AUTO 07013KT 10SM CLR M14/M16 A2985 RMK AO2 SLP111 T11391156 FZRANO
PFNO 231456Z AUTO 07012KT 10SM CLR M13/M15 A2984 RMK AO2 SLP107 T11331150 53010 FZRANO
PFNO 231356Z AUTO 07011KT 10SM CLR M13/M15 A2983 RMK AO2 SLP103 T11331150 FZRANO
PFNO 231256Z AUTO 07014KT 10SM CLR M13/M14 A2982 RMK AO2 SLP101 T11281144 FZRANO
PFNO 231156Z AUTO 08011KT 10SM CLR M13/M14 A2981 RMK AO2 SLP097 T11281144 11122 21128 53014 FZRANO
PFNO 231056Z AUTO 07012KT 10SM CLR M13/M14 A2979 RMK AO2 SLP091 T11281144 FZRANO
PFNO 230956Z AUTO 06010KT 10SM CLR M13/M16 A2978 RMK AO2 SLP087 T11281156 FZRANO
PFNO 230856Z AUTO 07009KT 10SM BKN110 M13/M16 A2977 RMK AO2 SLP083 T11281161 411001167 51018 FZRANO
PFNO 230756Z AUTO 08005KT 10SM FEW120 M13/M16 A2976 RMK AO2 SLP078 T11281161 FZRANO
PFNO 230656Z AUTO 06009KT 10SM CLR M12/M16 A2974 RMK AO2 SLP072 T11221156 FZRANO
PFNO 230556Z AUTO 09009KT 10SM CLR M12/M16 A2972 RMK AO2 SLP066 T11221161 11100 21139 53012 FZRANO
PFNO 230456Z AUTO 07006KT 10SM CLR M13/M16 A2971 RMK AO2 SLP062 T11331161 FZRANO
PFNO 230356Z AUTO 05007KT 10SM CLR M13/M16 A2970 RMK AO2 SLP057 T11331161 FZRANO
PFNO 230256Z AUTO 07003KT 9SM CLR M13/M16 A2969 RMK AO2 SLP054 T11281161 53015 FZRANO
PFNO 230156Z AUTO 07006KT 9SM CLR M11/M16 A2967 RMK AO2 SLP049 T11111156 FZRANO
PFNO 230056Z AUTO 09009KT 10SM CLR M11/M16 A2965 RMK AO2 SLP043 T11061156 FZRANO
PFNO 222356Z AUTO 07010KT 8SM CLR M11/M16 A2964 RMK AO2 SLP039 T11061156 11100 21161 51008 FZRANO
PFNO 222256Z AUTO 07011KT 10SM CLR M11/M15 A2964 RMK AO2 SLP037 T11061150 FZRANO
PFNO 222156Z AUTO 08010KT 9SM CLR M11/M16 A2963 RMK AO2 SLP036 T11111161 FZRANO
PFNO 222056Z AUTO 08010KT 10SM CLR M13/M17 A2962 RMK AO2 SLP031 T11281167 53018 FZRANO
PFNO 221956Z AUTO 08010KT 7SM CLR M14/M17 A2960 RMK AO2 SLP024 T11391172 FZRANO
PFNO 221856Z AUTO 08008KT 10SM CLR M16/M19 A2958 RMK AO2 SLP019 T11611189 FZRANO
PFNO 221756Z AUTO 07010KT 10SM CLR M16/M19 A2957 RMK AO2 SLP013 T11611189 11133 21167 51015 FZRANO
PFNO 221656Z AUTO 07010KT 10SM CLR M16/M19 A2955 RMK AO2 SLP009 T11611189 FZRANO
PFNO 221556Z AUTO 08006KT 10SM CLR M16/M18 A2954 RMK AO2 SLP003 T11611183 FZRANO
PFNO 221456Z AUTO 07009KT 10SM CLR M16/M18 A2952 RMK AO2 SLP998 T11561178 53008 FZRANO
PFNO 221356Z AUTO 07011KT 10SM CLR M15/M17 A2951 RMK AO2 SLP995 T11501172 FZRANO
PFNO 221256Z AUTO 05008KT 10SM CLR M14/M17 A2950 RMK AO2 SLP992 T11441172 FZRANO
PFNO 221156Z AUTO 07010KT 10SM CLR M13/M16 A2950 RMK AO2 SLP990 T11331161 11106 21133 53005 FZRANO
PFNO 221056Z AUTO 07013KT 10SM CLR M13/M16 A2949 RMK AO2 SLP988 T11281161 FZRANO
PFNO 220956Z AUTO 06013KT 10SM CLR M13/M16 A2948 RMK AO2 SLP985 T11331161 FZRANO
PFNO 220856Z AUTO 08010KT 10SM BKN095 M13/M16 A2948 RMK AO2 SLP984 T11281156 410831128 53003 FZRANO
PFNO 220756Z AUTO 06012KT 10SM OVC110 M12/M14 A2947 RMK AO2 SLP981 T11221144 FZRANO
PFNO 220656Z AUTO 07009KT 9SM FEW090 SCT110 M11/M14 A2948 RMK AO2 SLP982 T11111139 FZRANO
PFNO 220556Z AUTO 05010KT 10SM SCT120 M11/M14 A2947 RMK AO2 SLP981 T11061139 11083 21111 53004 FZRANO